Celle, Celle Air Base (ETHC)

NameCelle Air Base
CityCelle
CountryGermany
ICAOETHC
IATAZCN
Altitude39 m
CoordinatesGoogle Map
Live Air TrafficLiveATC.net
METARETHC 081102Z 04002KT 9999 SCT120 SCT140 BKN240 07/05 Q1007 BLU+FCST CANCEL
2019-11-08 11:02:00 Wind: North-Northeast (40°) 1.03 m/s - Visibility: > 10000 m - Temperature: 7 °C - Dew point: 5 °C - Humidity: 87.2% - Pressure: 1007 hPa
Statistics

The table below shows the detailed information of all flights to/from Celle, Celle Air Base (ETHC).

Ident Aircraft Coming fromFrom Going toTo Owner nameOwnerSpotted durationDurationDate
D-EKVM - C206 - Not Available Not Available DEKVM CESSNA 206 C206 Hannover, Germany (EDDV) EDDV
28 km
Celle, Germany (ETHC) ETHC - - - - Thu, 31 Oct 2019 16:05:31 +0000 31/10/2019 4:05 pm
D-EJYZ - C175 - Not Available Not Available DEJYZ CESSNA 175 C175 Nordholz, Germany (EDXN) EDXN
113 km
Celle, Germany (ETHC) ETHC - - - - Thu, 31 Oct 2019 15:06:59 +0000 31/10/2019 3:06 pm
D-EKVM - C206 - Not Available Not Available DEKVM CESSNA 206 C206 Hannover, Germany (EDDV) EDDV
30 km
Celle, Germany (ETHC) ETHC - - 00:43:08 00:43:08 Thu, 31 Oct 2019 14:23:45 +0000 31/10/2019 2:23 pm
Thu, 31 Oct 2019 15:06:53 +0000 31/10/2019 3:06 pm
D-EJYZ - C175 - Not Available Not Available DEJYZ CESSNA 175 C175 Nordholz, Germany (EDXN) EDXN
116 km
Celle, Germany (ETHC) ETHC - - 00:08:00 00:08:00 Thu, 31 Oct 2019 10:49:14 +0000 31/10/2019 10:49 am
Thu, 31 Oct 2019 10:57:14 +0000 31/10/2019 10:57 am